createdAt,value
2018-04-08T00:00:04.780Z,10.47
2018-04-08T00:01:04.776Z,10.39
2018-04-08T00:02:04.777Z,10.34
2018-04-08T00:03:04.773Z,10.26
2018-04-08T00:04:04.774Z,10.24
2018-04-08T00:05:04.775Z,10.12
2018-04-08T00:06:04.778Z,10.19
2018-04-08T00:07:04.770Z,10.22
2018-04-08T00:08:04.771Z,10.36
2018-04-08T00:09:04.773Z,10.46
2018-04-08T00:10:04.774Z,10.58
2018-04-08T00:11:04.779Z,10.55
2018-04-08T00:12:04.769Z,10.63
2018-04-08T00:13:04.770Z,10.62
2018-04-08T00:14:04.765Z,10.62
2018-04-08T00:15:04.769Z,10.68
2018-04-08T00:16:04.768Z,10.78
2018-04-08T00:17:04.766Z,10.78
2018-04-08T00:18:04.762Z,10.81
2018-04-08T00:19:04.762Z,10.86
2018-04-08T00:20:04.760Z,10.81
2018-04-08T00:21:04.765Z,10.77
2018-04-08T00:22:04.759Z,10.71
2018-04-08T00:23:04.892Z,10.68
2018-04-08T00:24:04.758Z,10.59
2018-04-08T00:25:04.758Z,10.46
2018-04-08T00:26:04.753Z,10.51
2018-04-08T00:27:04.754Z,10.44
2018-04-08T00:28:04.753Z,10.39
2018-04-08T00:29:04.764Z,10.33
2018-04-08T00:30:04.752Z,10.14
2018-04-08T00:31:04.753Z,10.19
2018-04-08T00:32:04.749Z,10.24
2018-04-08T00:33:04.757Z,10.07
2018-04-08T00:34:04.748Z,10.14
2018-04-08T00:35:04.749Z,10.03
2018-04-08T00:36:04.746Z,9.96
2018-04-08T00:37:04.746Z,10.00
2018-04-08T00:38:04.744Z,9.91
2018-04-08T00:39:04.743Z,9.97
2018-04-08T00:40:04.747Z,9.93
2018-04-08T00:41:04.740Z,10.00
2018-04-08T00:42:04.740Z,9.97
2018-04-08T00:43:04.740Z,10.01
2018-04-08T00:44:04.737Z,9.97
2018-04-08T00:45:04.740Z,9.99
2018-04-08T00:46:04.737Z,10.01
2018-04-08T00:47:04.740Z,9.96
2018-04-08T00:48:04.734Z,9.97
2018-04-08T00:49:04.734Z,9.96
2018-04-08T00:50:04.736Z,9.93
2018-04-08T00:51:04.732Z,9.89
2018-04-08T00:52:04.730Z,9.85
2018-04-08T00:53:04.731Z,9.79
2018-04-08T00:54:04.729Z,9.79
2018-04-08T00:55:04.728Z,9.81
2018-04-08T00:56:04.730Z,9.78
2018-04-08T00:57:04.728Z,9.68
2018-04-08T00:58:04.726Z,9.60
2018-04-08T00:59:04.725Z,9.60
2018-04-08T01:00:04.728Z,9.66
2018-04-08T01:01:04.724Z,9.63
2018-04-08T01:02:04.720Z,9.58
2018-04-08T01:03:04.721Z,9.42
2018-04-08T01:04:04.719Z,9.39
2018-04-08T01:05:04.718Z,9.28
2018-04-08T01:06:04.716Z,9.28
2018-04-08T01:07:04.714Z,9.28
2018-04-08T01:08:04.714Z,9.15
2018-04-08T01:09:04.717Z,9.12
2018-04-08T01:10:04.711Z,9.12
2018-04-08T01:11:04.711Z,9.09
2018-04-08T01:12:04.708Z,9.01
2018-04-08T01:13:04.725Z,8.99
2018-04-08T01:14:04.709Z,8.88
2018-04-08T01:15:04.708Z,9.01
2018-04-08T01:16:04.706Z,8.93
2018-04-08T01:17:04.708Z,8.97
2018-04-08T01:18:04.700Z,8.91
2018-04-08T01:19:04.698Z,8.88
2018-04-08T01:20:04.698Z,8.81
2018-04-08T01:21:04.698Z,8.72
2018-04-08T01:22:04.696Z,8.68
2018-04-08T01:23:04.693Z,8.75
2018-04-08T01:24:04.692Z,8.72
2018-04-08T01:25:04.691Z,8.75
2018-04-08T01:26:04.689Z,8.71
2018-04-08T01:27:04.687Z,8.68
2018-04-08T01:28:04.691Z,8.68
2018-04-08T01:29:04.684Z,8.81
2018-04-08T01:30:04.685Z,8.88
2018-04-08T01:31:04.682Z,8.94
2018-04-08T01:32:04.679Z,8.86
2018-04-08T01:33:04.679Z,8.88
2018-04-08T01:34:04.676Z,9.01
2018-04-08T01:35:04.676Z,9.10
2018-04-08T01:36:04.672Z,9.06
2018-04-08T01:37:04.672Z,9.15
2018-04-08T01:38:04.671Z,9.27
2018-04-08T01:39:04.668Z,9.31
2018-04-08T01:40:04.666Z,9.28
2018-04-08T01:41:04.671Z,9.28
2018-04-08T01:42:04.667Z,9.39
2018-04-08T01:43:04.663Z,9.38
2018-04-08T01:44:04.664Z,9.42
2018-04-08T01:45:04.657Z,9.40
2018-04-08T01:46:04.658Z,9.68
2018-04-08T01:47:04.653Z,9.75
2018-04-08T01:48:04.654Z,9.86
2018-04-08T01:49:04.653Z,9.83
2018-04-08T01:50:04.651Z,9.99
2018-04-08T01:51:04.654Z,9.91
2018-04-08T01:52:04.651Z,10.04
2018-04-08T01:53:04.649Z,10.17
2018-04-08T01:54:04.646Z,10.36
2018-04-08T01:55:04.644Z,11.06
2018-04-08T01:56:04.644Z,11.34
2018-04-08T01:57:04.641Z,11.39
2018-04-08T01:58:04.639Z,11.35
2018-04-08T01:59:04.639Z,11.20
2018-04-08T02:00:04.635Z,11.07
2018-04-08T02:01:04.635Z,10.80
2018-04-08T02:02:04.637Z,10.53
2018-04-08T02:03:04.634Z,10.46
2018-04-08T02:04:04.638Z,10.24
2018-04-08T02:05:04.630Z,10.09
2018-04-08T02:06:04.628Z,10.12
2018-04-08T02:07:04.629Z,10.10
2018-04-08T02:08:04.625Z,9.96
2018-04-08T02:09:04.628Z,9.93
2018-04-08T02:10:04.624Z,9.86
2018-04-08T02:11:04.625Z,9.81
2018-04-08T02:12:04.622Z,9.94
2018-04-08T02:13:04.620Z,10.10
2018-04-08T02:14:04.617Z,10.21
2018-04-08T02:15:04.619Z,10.40
2018-04-08T02:16:04.616Z,10.51
2018-04-08T02:17:04.615Z,10.68
2018-04-08T02:18:04.613Z,10.65
2018-04-08T02:19:04.619Z,10.66
2018-04-08T02:20:04.613Z,10.77
2018-04-08T02:21:04.633Z,10.76
2018-04-08T02:22:04.609Z,10.76
2018-04-08T02:23:04.609Z,10.71
2018-04-08T02:24:04.607Z,10.73
2018-04-08T02:25:04.605Z,10.73
2018-04-08T02:26:04.606Z,10.62
2018-04-08T02:27:04.604Z,10.63
2018-04-08T02:28:04.602Z,10.94
2018-04-08T02:29:04.601Z,11.01
2018-04-08T02:30:04.601Z,11.07
2018-04-08T02:31:04.599Z,11.20
2018-04-08T02:32:04.599Z,11.36
2018-04-08T02:33:04.599Z,11.36
2018-04-08T02:34:04.595Z,11.36
2018-04-08T02:35:04.596Z,11.20
2018-04-08T02:36:04.599Z,11.10
2018-04-08T02:37:04.597Z,10.96
2018-04-08T02:38:04.588Z,10.83
2018-04-08T02:39:04.592Z,10.77
2018-04-08T02:40:04.591Z,10.77
2018-04-08T02:41:04.590Z,10.63
2018-04-08T02:42:04.590Z,10.44
2018-04-08T02:43:04.587Z,10.59
2018-04-08T02:44:04.589Z,10.55
2018-04-08T02:45:04.591Z,10.66
2018-04-08T02:46:04.584Z,10.73
2018-04-08T02:47:04.584Z,10.68
2018-04-08T02:48:04.585Z,10.68
2018-04-08T02:49:04.582Z,10.81
2018-04-08T02:50:04.587Z,10.94
2018-04-08T02:51:04.579Z,10.92
2018-04-08T02:52:04.580Z,10.98
2018-04-08T02:53:04.580Z,11.02
2018-04-08T02:54:04.577Z,11.07
2018-04-08T02:55:04.578Z,11.09
2018-04-08T02:56:04.579Z,10.98
2018-04-08T02:57:04.576Z,11.17
2018-04-08T02:58:04.573Z,11.11
2018-04-08T02:59:04.571Z,11.07
2018-04-08T03:00:04.574Z,10.99
2018-04-08T03:01:04.572Z,11.07
2018-04-08T03:02:04.570Z,10.98
2018-04-08T03:03:04.569Z,10.91
2018-04-08T03:04:04.569Z,10.86
2018-04-08T03:05:04.566Z,10.78
2018-04-08T03:06:04.564Z,10.76
2018-04-08T03:07:04.570Z,10.59
2018-04-08T03:08:04.564Z,10.60
2018-04-08T03:09:04.564Z,10.51
2018-04-08T03:10:04.574Z,10.51
2018-04-08T03:11:04.561Z,10.40
2018-04-08T03:12:04.562Z,10.40
2018-04-08T03:13:04.561Z,10.30
2018-04-08T03:14:04.560Z,10.21
2018-04-08T03:15:04.559Z,10.25
2018-04-08T03:16:04.557Z,10.44
2018-04-08T03:17:04.556Z,10.52
2018-04-08T03:18:04.555Z,10.63
2018-04-08T03:19:04.554Z,10.53
2018-04-08T03:20:04.553Z,10.56
2018-04-08T03:21:04.550Z,10.44
2018-04-08T03:22:04.558Z,10.55
2018-04-08T03:23:04.550Z,10.53
2018-04-08T03:24:04.552Z,10.52
2018-04-08T03:25:04.548Z,10.42
2018-04-08T03:26:04.554Z,10.33
2018-04-08T03:27:04.549Z,10.26
2018-04-08T03:28:04.544Z,10.24
2018-04-08T03:29:04.546Z,10.25
2018-04-08T03:30:04.544Z,10.24
2018-04-08T03:31:04.545Z,10.21
2018-04-08T03:32:04.541Z,10.18
2018-04-08T03:33:04.542Z,10.14
2018-04-08T03:34:04.539Z,10.26
2018-04-08T03:35:04.535Z,10.21
2018-04-08T03:36:04.542Z,10.17
2018-04-08T03:37:04.536Z,10.25
2018-04-08T03:38:04.534Z,10.10
2018-04-08T03:39:04.534Z,10.09
2018-04-08T03:40:04.532Z,10.07
2018-04-08T03:41:04.533Z,10.09
2018-04-08T03:42:04.530Z,10.17
2018-04-08T03:43:04.530Z,10.06
2018-04-08T03:44:04.528Z,10.04
2018-04-08T03:45:04.531Z,10.03
2018-04-08T03:46:04.528Z,10.04
2018-04-08T03:47:04.524Z,9.91
2018-04-08T03:48:04.526Z,9.99
2018-04-08T03:49:04.525Z,9.89
2018-04-08T03:50:04.521Z,9.91
2018-04-08T03:51:04.520Z,9.86
2018-04-08T03:52:04.519Z,9.78
2018-04-08T03:53:04.519Z,9.89
2018-04-08T03:54:04.517Z,9.82
2018-04-08T03:55:04.521Z,9.85
2018-04-08T03:56:04.515Z,9.71
2018-04-08T03:57:04.517Z,9.70
2018-04-08T03:58:04.511Z,9.71
2018-04-08T03:59:04.510Z,9.68
2018-04-08T04:00:04.510Z,9.79
2018-04-08T04:01:04.509Z,9.78
2018-04-08T04:02:04.511Z,9.78
2018-04-08T04:03:04.513Z,9.71
2018-04-08T04:04:04.509Z,9.76
2018-04-08T04:05:04.505Z,9.71
2018-04-08T04:06:04.504Z,9.71
2018-04-08T04:07:04.502Z,9.71
2018-04-08T04:08:04.501Z,9.75
2018-04-08T04:09:04.499Z,9.76
2018-04-08T04:10:04.497Z,9.78
2018-04-08T04:11:04.498Z,9.75
2018-04-08T04:12:04.496Z,9.78
2018-04-08T04:13:04.495Z,9.86
2018-04-08T04:14:04.491Z,9.82
2018-04-08T04:15:04.494Z,9.86
2018-04-08T04:16:04.490Z,9.81
2018-04-08T04:17:04.495Z,10.01
2018-04-08T04:18:04.489Z,10.09
2018-04-08T04:19:04.486Z,10.14
2018-04-08T04:20:04.486Z,10.28
2018-04-08T04:21:04.484Z,10.22
2018-04-08T04:22:04.487Z,10.21
2018-04-08T04:23:04.482Z,10.18
2018-04-08T04:24:04.482Z,10.15
2018-04-08T04:25:04.481Z,10.18
2018-04-08T04:26:04.476Z,10.18
2018-04-08T04:27:04.481Z,10.21
2018-04-08T04:28:04.475Z,10.07
2018-04-08T04:29:04.473Z,10.07
2018-04-08T04:30:04.470Z,10.09
2018-04-08T04:31:04.471Z,10.01
2018-04-08T04:32:04.469Z,9.96
2018-04-08T04:33:04.468Z,9.89
2018-04-08T04:34:04.467Z,9.70
2018-04-08T04:35:04.467Z,9.70
2018-04-08T04:36:04.466Z,9.60
2018-04-08T04:37:04.462Z,9.46
2018-04-08T04:38:04.461Z,9.35
2018-04-08T04:39:04.459Z,9.12
2018-04-08T04:40:04.460Z,9.06
2018-04-08T04:41:04.456Z,9.01
2018-04-08T04:42:04.458Z,9.01
2018-04-08T04:43:04.456Z,8.97
2018-04-08T04:44:04.453Z,8.97
2018-04-08T04:45:04.456Z,8.97
2018-04-08T04:46:04.451Z,8.97
2018-04-08T04:47:04.447Z,9.15
2018-04-08T04:48:04.446Z,9.27
2018-04-08T04:49:04.448Z,9.30
2018-04-08T04:50:04.445Z,9.20
2018-04-08T04:51:04.442Z,9.15
2018-04-08T04:52:04.443Z,8.97
2018-04-08T04:53:04.440Z,8.87
2018-04-08T04:54:04.437Z,8.94
2018-04-08T04:55:04.437Z,8.71
2018-04-08T04:56:04.437Z,8.69
2018-04-08T04:57:04.437Z,8.58
2018-04-08T04:58:04.438Z,8.54
2018-04-08T04:59:04.431Z,8.55
2018-04-08T05:00:04.429Z,8.55
2018-04-08T05:01:04.433Z,8.57
2018-04-08T05:02:04.426Z,8.72
2018-04-08T05:03:04.425Z,8.72
2018-04-08T05:04:04.430Z,8.75
2018-04-08T05:05:04.421Z,8.73
2018-04-08T05:06:04.426Z,8.62
2018-04-08T05:07:04.417Z,8.57
2018-04-08T05:08:04.415Z,8.42
2018-04-08T05:09:04.414Z,8.51
2018-04-08T05:10:04.411Z,8.35
2018-04-08T05:11:04.408Z,8.29
2018-04-08T05:12:04.409Z,8.29
2018-04-08T05:13:04.406Z,8.25
2018-04-08T05:14:04.402Z,8.22
2018-04-08T05:15:04.408Z,8.18
2018-04-08T05:16:04.401Z,8.22
2018-04-08T05:17:04.400Z,8.18
2018-04-08T05:18:04.398Z,8.21
2018-04-08T05:19:04.402Z,8.30
2018-04-08T05:20:04.394Z,8.28
2018-04-08T05:21:04.392Z,8.30
2018-04-08T05:22:04.388Z,8.35
2018-04-08T05:23:04.427Z,8.37
2018-04-08T05:24:04.384Z,8.42
2018-04-08T05:25:04.386Z,8.44
2018-04-08T05:26:04.382Z,8.45
2018-04-08T05:27:04.381Z,8.39
2018-04-08T05:28:04.382Z,8.37
2018-04-08T05:29:04.377Z,8.37
2018-04-08T05:30:04.373Z,8.29
2018-04-08T05:31:04.380Z,8.30
2018-04-08T05:32:04.372Z,8.29
2018-04-08T05:33:04.369Z,8.30
2018-04-08T05:34:04.367Z,8.32
2018-04-08T05:35:04.364Z,8.33
2018-04-08T05:36:04.363Z,8.32
2018-04-08T05:37:04.364Z,8.37
2018-04-08T05:38:04.359Z,8.40
2018-04-08T05:39:04.357Z,8.50
2018-04-08T05:40:04.356Z,8.44
2018-04-08T05:41:04.388Z,8.50
2018-04-08T05:42:04.350Z,8.48
2018-04-08T05:43:04.348Z,8.44
2018-04-08T05:44:04.350Z,8.44
2018-04-08T05:45:04.348Z,8.51
2018-04-08T05:46:04.344Z,8.57
2018-04-08T05:47:04.344Z,8.62
2018-04-08T05:48:04.341Z,8.73
2018-04-08T05:49:04.339Z,8.65
2018-04-08T05:50:04.336Z,8.88
2018-04-08T05:51:04.336Z,8.97
2018-04-08T05:52:04.337Z,9.13
2018-04-08T05:53:04.331Z,9.12
2018-04-08T05:54:04.330Z,9.25
2018-04-08T05:55:04.327Z,9.32
2018-04-08T05:56:04.333Z,9.34
2018-04-08T05:57:04.329Z,9.38
2018-04-08T05:58:04.367Z,9.35
2018-04-08T05:59:04.322Z,9.45
2018-04-08T06:00:04.326Z,9.42
2018-04-08T06:01:04.326Z,9.45
2018-04-08T06:02:04.319Z,9.43
2018-04-08T06:03:04.318Z,9.50
2018-04-08T06:04:04.313Z,9.39
2018-04-08T06:05:04.313Z,9.45
2018-04-08T06:06:04.313Z,9.56
2018-04-08T06:07:04.312Z,9.40
2018-04-08T06:08:04.309Z,9.52
2018-04-08T06:09:04.311Z,9.58
2018-04-08T06:10:04.407Z,9.73
2018-04-08T06:11:04.305Z,9.70
2018-04-08T06:12:04.306Z,9.81
2018-04-08T06:13:04.302Z,10.00
2018-04-08T06:14:04.302Z,10.12
2018-04-08T06:15:04.301Z,10.17
2018-04-08T06:16:04.298Z,10.36
2018-04-08T06:17:04.301Z,10.44
2018-04-08T06:18:04.294Z,10.46
2018-04-08T06:19:04.294Z,10.62
2018-04-08T06:20:04.293Z,10.71
2018-04-08T06:21:04.293Z,10.91
2018-04-08T06:22:04.298Z,10.89
2018-04-08T06:23:04.294Z,11.07
2018-04-08T06:24:04.290Z,11.09
2018-04-08T06:25:04.290Z,11.28
2018-04-08T06:26:04.286Z,11.29
2018-04-08T06:27:04.285Z,11.50
2018-04-08T06:28:04.312Z,11.80
2018-04-08T06:29:04.284Z,12.30
2018-04-08T06:30:04.282Z,13.30
2018-04-08T06:31:04.283Z,14.53
2018-04-08T06:32:04.281Z,15.67
2018-04-08T06:33:04.281Z,16.55
2018-04-08T06:34:04.282Z,17.40
2018-04-08T06:35:04.290Z,18.00
2018-04-08T06:36:04.280Z,18.33
2018-04-08T06:37:04.281Z,18.59
2018-04-08T06:38:04.281Z,18.97
2018-04-08T06:39:04.280Z,19.32
2018-04-08T06:40:04.283Z,19.93
2018-04-08T06:41:04.280Z,20.20
2018-04-08T06:42:04.286Z,20.02
2018-04-08T06:43:04.285Z,19.95
2018-04-08T06:44:04.288Z,19.90
2018-04-08T06:45:04.288Z,20.24
2018-04-08T06:46:04.293Z,20.06
2018-04-08T06:47:04.293Z,19.94
2018-04-08T06:48:04.298Z,19.46
2018-04-08T06:49:04.300Z,19.97
2018-04-08T06:50:04.306Z,20.64
2018-04-08T06:51:04.310Z,20.90
2018-04-08T06:52:04.312Z,21.06
2018-04-08T06:53:04.318Z,21.23
2018-04-08T06:54:04.321Z,21.44
2018-04-08T06:55:04.327Z,21.99
2018-04-08T06:56:04.331Z,22.29
2018-04-08T06:57:04.337Z,22.77
2018-04-08T06:58:04.343Z,23.08
2018-04-08T06:59:04.348Z,23.15
2018-04-08T07:00:04.356Z,23.05
2018-04-08T07:01:04.366Z,22.80
2018-04-08T07:02:04.368Z,22.87
2018-04-08T07:03:04.375Z,22.86
2018-04-08T07:04:04.384Z,23.01
2018-04-08T07:05:04.393Z,22.96
2018-04-08T07:06:04.396Z,22.84
2018-04-08T07:07:04.400Z,22.94
2018-04-08T07:08:04.409Z,23.05
2018-04-08T07:09:04.415Z,23.19
2018-04-08T07:10:04.423Z,23.75
2018-04-08T07:11:04.429Z,23.70
2018-04-08T07:12:04.452Z,23.79
2018-04-08T07:13:04.447Z,23.42
2018-04-08T07:14:04.457Z,24.05
2018-04-08T07:15:04.463Z,23.61
2018-04-08T07:16:04.473Z,23.35
2018-04-08T07:17:04.485Z,23.58
2018-04-08T07:18:04.491Z,23.60
2018-04-08T07:19:04.497Z,24.07
2018-04-08T07:20:04.506Z,24.59
2018-04-08T07:21:04.517Z,25.05
2018-04-08T07:22:04.521Z,25.37
2018-04-08T07:23:04.557Z,25.49
2018-04-08T07:24:04.543Z,25.44
2018-04-08T07:25:04.555Z,25.39
2018-04-08T07:26:04.565Z,25.38
2018-04-08T07:27:04.574Z,25.62
2018-04-08T07:28:04.581Z,25.56
2018-04-08T07:29:04.592Z,25.57
2018-04-08T07:30:04.602Z,25.32
2018-04-08T07:31:04.610Z,25.28
2018-04-08T07:32:04.619Z,24.80
2018-04-08T07:33:04.660Z,24.73
2018-04-08T07:34:04.639Z,24.91
2018-04-08T07:35:04.653Z,24.97
2018-04-08T07:36:04.662Z,25.13
2018-04-08T07:37:04.671Z,25.15
2018-04-08T07:38:04.686Z,25.07
2018-04-08T07:39:04.694Z,25.02
2018-04-08T07:40:04.703Z,25.05
2018-04-08T07:41:04.716Z,25.25
2018-04-08T07:42:04.725Z,25.46
2018-04-08T07:43:04.750Z,25.25
2018-04-08T07:44:04.748Z,24.88
2018-04-08T07:45:04.808Z,25.02
2018-04-08T07:46:04.772Z,24.91
2018-04-08T07:47:04.823Z,25.07
2018-04-08T07:48:04.798Z,25.16
2018-04-08T07:49:04.809Z,25.17
2018-04-08T07:50:04.817Z,25.06
2018-04-08T07:51:04.829Z,25.00
2018-04-08T07:52:04.841Z,24.57
2018-04-08T07:53:04.852Z,24.41
2018-04-08T07:54:04.865Z,24.24
2018-04-08T07:55:04.878Z,23.87
2018-04-08T07:56:04.890Z,23.50
2018-04-08T07:57:04.903Z,23.27
2018-04-08T07:58:04.921Z,22.92
2018-04-08T07:59:04.953Z,22.59
2018-04-08T08:00:04.941Z,22.31
2018-04-08T08:01:04.954Z,22.02
2018-04-08T08:02:04.966Z,21.99
2018-04-08T08:03:04.977Z,21.74
2018-04-08T08:04:04.995Z,21.45
2018-04-08T08:05:05.003Z,21.51
2018-04-08T08:06:05.015Z,21.42
2018-04-08T08:07:05.031Z,21.46
2018-04-08T08:08:05.042Z,21.30
2018-04-08T08:09:05.056Z,21.26
2018-04-08T08:10:05.070Z,21.27
2018-04-08T08:11:05.081Z,21.16
2018-04-08T08:12:05.095Z,21.29
2018-04-08T08:13:05.110Z,21.27
2018-04-08T08:14:05.141Z,21.32
2018-04-08T08:15:05.135Z,21.41
2018-04-08T08:16:05.146Z,21.48
2018-04-08T08:17:05.160Z,21.56
2018-04-08T08:18:05.173Z,21.74
2018-04-08T08:19:05.186Z,21.78
2018-04-08T08:20:05.199Z,21.99
2018-04-08T08:21:05.212Z,21.99
2018-04-08T08:22:05.223Z,21.94
2018-04-08T08:23:05.284Z,21.79
2018-04-08T08:24:05.248Z,21.79
2018-04-08T08:25:05.261Z,21.66
2018-04-08T08:26:05.275Z,21.85
2018-04-08T08:27:05.297Z,22.02
2018-04-08T08:28:05.299Z,22.17
2018-04-08T08:29:05.312Z,22.17
2018-04-08T08:30:05.322Z,22.06
2018-04-08T08:31:05.345Z,22.20
2018-04-08T08:32:05.352Z,22.16
2018-04-08T08:33:05.384Z,22.06
2018-04-08T08:34:05.370Z,21.98
2018-04-08T08:35:05.386Z,21.42
2018-04-08T08:36:05.391Z,21.71
2018-04-08T08:37:05.403Z,21.61
2018-04-08T08:38:05.413Z,21.53
2018-04-08T08:39:05.425Z,21.91
2018-04-08T08:40:05.433Z,22.10
2018-04-08T08:41:05.442Z,22.23
2018-04-08T08:42:05.459Z,22.14
2018-04-08T08:43:05.477Z,22.32
2018-04-08T08:44:05.484Z,22.07
2018-04-08T08:45:05.484Z,22.07
2018-04-08T08:46:05.492Z,21.99
2018-04-08T08:47:05.510Z,21.95
2018-04-08T08:48:05.513Z,22.04
2018-04-08T08:49:05.521Z,22.43
2018-04-08T08:50:05.530Z,22.57
2018-04-08T08:51:05.545Z,22.69
2018-04-08T08:52:05.550Z,22.87
2018-04-08T08:53:05.558Z,22.87
2018-04-08T08:54:05.565Z,22.94
2018-04-08T08:55:05.588Z,22.94
2018-04-08T08:56:05.584Z,22.89
2018-04-08T08:57:05.593Z,23.20
2018-04-08T08:58:05.602Z,23.14
2018-04-08T08:59:05.612Z,22.99
2018-04-08T09:00:05.620Z,22.82
2018-04-08T09:01:05.636Z,22.71
2018-04-08T09:02:05.638Z,22.39
2018-04-08T09:03:05.645Z,22.56
2018-04-08T09:04:05.658Z,22.62
2018-04-08T09:05:05.663Z,22.50
2018-04-08T09:06:05.670Z,22.74
2018-04-08T09:07:05.681Z,22.83
2018-04-08T09:08:05.690Z,22.90
2018-04-08T09:09:05.699Z,22.89
2018-04-08T09:10:05.709Z,22.94
2018-04-08T09:11:05.715Z,23.05
2018-04-08T09:12:05.773Z,23.19
2018-04-08T09:13:05.736Z,23.29
2018-04-08T09:14:05.740Z,23.24
2018-04-08T09:15:05.749Z,23.32
2018-04-08T09:16:05.760Z,23.24
2018-04-08T09:17:05.772Z,23.50
2018-04-08T09:18:05.779Z,23.55
2018-04-08T09:19:05.788Z,23.61
2018-04-08T09:20:05.795Z,23.40
2018-04-08T09:21:05.802Z,23.58
2018-04-08T09:22:05.832Z,23.53
2018-04-08T09:23:05.822Z,23.65
2018-04-08T09:24:05.840Z,23.57
2018-04-08T09:25:05.843Z,23.23
2018-04-08T09:26:05.854Z,23.02
2018-04-08T09:27:05.862Z,23.02
2018-04-08T09:28:05.870Z,23.05
2018-04-08T09:29:05.887Z,23.34
2018-04-08T09:30:05.898Z,23.61
2018-04-08T09:31:05.905Z,23.53
2018-04-08T09:32:05.919Z,23.52
2018-04-08T09:33:05.936Z,23.47
2018-04-08T09:34:05.937Z,23.46
2018-04-08T09:35:05.958Z,23.65
2018-04-08T09:36:05.967Z,23.77
2018-04-08T09:37:05.977Z,23.85
2018-04-08T09:38:05.988Z,23.80
2018-04-08T09:39:06.002Z,23.32
2018-04-08T09:40:06.026Z,23.26
2018-04-08T09:41:06.029Z,23.39
2018-04-08T09:42:06.042Z,23.62
2018-04-08T09:43:06.056Z,23.92
2018-04-08T09:44:06.070Z,24.20
2018-04-08T09:45:06.102Z,24.24
2018-04-08T09:46:06.097Z,24.29
2018-04-08T09:47:06.112Z,24.23
2018-04-08T09:48:06.129Z,24.22
2018-04-08T09:49:06.181Z,24.39
2018-04-08T09:50:06.156Z,24.42
2018-04-08T09:51:06.173Z,24.56
2018-04-08T09:52:06.186Z,24.50
2018-04-08T09:53:06.199Z,24.61
2018-04-08T09:54:06.211Z,24.57
2018-04-08T09:55:06.250Z,24.79
2018-04-08T09:56:06.239Z,24.94
2018-04-08T09:57:06.256Z,24.59
2018-04-08T09:58:06.267Z,24.59
2018-04-08T09:59:06.280Z,24.50
2018-04-08T10:00:06.292Z,24.04
2018-04-08T10:01:06.405Z,24.04
2018-04-08T10:02:06.322Z,24.02
2018-04-08T10:03:06.335Z,23.98
2018-04-08T10:04:06.344Z,23.83
2018-04-08T10:05:06.358Z,24.04
2018-04-08T10:06:06.365Z,24.27
2018-04-08T10:07:06.380Z,24.47
2018-04-08T10:08:06.425Z,24.49
2018-04-08T10:09:06.401Z,24.42
2018-04-08T10:10:06.418Z,24.42
2018-04-08T10:11:06.429Z,24.60
2018-04-08T10:12:06.442Z,24.68
2018-04-08T10:13:06.447Z,24.82
2018-04-08T10:14:06.455Z,24.67
2018-04-08T10:15:06.467Z,24.67
2018-04-08T10:16:06.627Z,24.80
2018-04-08T10:17:06.488Z,24.56
2018-04-08T10:18:06.507Z,24.44
2018-04-08T10:19:06.508Z,24.53
2018-04-08T10:20:06.546Z,24.68
2018-04-08T10:21:06.532Z,24.68
2018-04-08T10:22:06.543Z,24.76
2018-04-08T10:23:06.550Z,24.61
2018-04-08T10:24:06.564Z,24.59
2018-04-08T10:25:06.588Z,24.67
2018-04-08T10:26:06.583Z,24.79
2018-04-08T10:27:06.593Z,24.80
2018-04-08T10:28:06.603Z,24.97
2018-04-08T10:29:06.660Z,24.61
2018-04-08T10:30:06.632Z,24.71
2018-04-08T10:31:06.637Z,24.14
2018-04-08T10:32:06.644Z,23.85
2018-04-08T10:33:06.653Z,23.77
2018-04-08T10:34:06.662Z,23.90
2018-04-08T10:35:06.674Z,23.64
2018-04-08T10:36:06.682Z,23.57
2018-04-08T10:37:06.691Z,23.32
2018-04-08T10:38:06.698Z,23.43
2018-04-08T10:39:06.708Z,23.62
2018-04-08T10:40:06.722Z,23.94
2018-04-08T10:41:06.730Z,24.22
2018-04-08T10:42:06.740Z,24.39
2018-04-08T10:43:06.745Z,24.76
2018-04-08T10:44:06.758Z,25.00
2018-04-08T10:45:07.355Z,24.94
2018-04-08T10:46:06.775Z,25.00
2018-04-08T10:47:06.798Z,25.05
2018-04-08T10:48:06.796Z,25.17
2018-04-08T10:49:06.802Z,25.25
2018-04-08T10:50:06.813Z,24.92
2018-04-08T10:51:06.823Z,24.39
2018-04-08T10:52:06.831Z,24.38
2018-04-08T10:53:06.867Z,24.53
2018-04-08T10:54:06.861Z,24.67
2018-04-08T10:55:06.858Z,24.68
2018-04-08T10:56:06.870Z,24.63
2018-04-08T10:57:06.878Z,24.26
2018-04-08T10:58:06.902Z,23.97
2018-04-08T10:59:06.898Z,24.04
2018-04-08T11:00:06.907Z,24.20
2018-04-08T11:01:06.945Z,24.37
2018-04-08T11:02:06.922Z,24.57
2018-04-08T11:03:06.938Z,24.76
2018-04-08T11:04:06.940Z,24.42
2018-04-08T11:05:06.950Z,24.50
2018-04-08T11:06:06.959Z,24.68
2018-04-08T11:07:06.974Z,24.73
2018-04-08T11:08:06.978Z,24.61
2018-04-08T11:09:07.003Z,24.85
2018-04-08T11:10:06.994Z,25.10
2018-04-08T11:11:07.004Z,25.20
2018-04-08T11:12:07.011Z,24.94
2018-04-08T11:13:07.021Z,24.50
2018-04-08T11:14:07.033Z,24.61
2018-04-08T11:15:07.039Z,24.41
2018-04-08T11:16:07.048Z,24.19
2018-04-08T11:17:07.059Z,24.05
2018-04-08T11:18:07.065Z,24.32
2018-04-08T11:19:07.075Z,24.16
2018-04-08T11:20:07.084Z,24.31
2018-04-08T11:21:07.097Z,24.50
2018-04-08T11:22:07.102Z,24.45
2018-04-08T11:23:07.112Z,24.41
2018-04-08T11:24:07.119Z,24.47
2018-04-08T11:25:07.128Z,24.54
2018-04-08T11:26:07.151Z,24.56
2018-04-08T11:27:07.145Z,24.59
2018-04-08T11:28:07.154Z,24.61
2018-04-08T11:29:07.163Z,24.71
2018-04-08T11:30:07.170Z,24.68
2018-04-08T11:31:07.182Z,24.45
2018-04-08T11:32:07.188Z,24.19
2018-04-08T11:33:07.201Z,24.13
2018-04-08T11:34:07.206Z,24.14
2018-04-08T11:35:07.215Z,24.44
2018-04-08T11:36:07.222Z,24.53
2018-04-08T11:37:07.314Z,24.71
2018-04-08T11:38:07.239Z,24.98
2018-04-08T11:39:07.251Z,25.06
2018-04-08T11:40:07.258Z,24.83
2018-04-08T11:41:07.286Z,24.77
2018-04-08T11:42:07.277Z,24.59
2018-04-08T11:43:07.284Z,24.32
2018-04-08T11:44:07.292Z,24.35
2018-04-08T11:45:07.303Z,24.34
2018-04-08T11:46:07.309Z,24.22
2018-04-08T11:47:07.317Z,24.59
2018-04-08T11:48:07.358Z,24.45
2018-04-08T11:49:07.340Z,24.52
2018-04-08T11:50:07.345Z,24.88
2018-04-08T11:51:07.357Z,25.17
2018-04-08T11:52:07.360Z,25.42
2018-04-08T11:53:07.372Z,25.28
2018-04-08T11:54:07.378Z,25.06
2018-04-08T11:55:07.390Z,24.91
2018-04-08T11:56:07.396Z,24.90
2018-04-08T11:57:07.404Z,24.90
2018-04-08T11:58:07.476Z,24.83
2018-04-08T11:59:07.432Z,24.91
2018-04-08T12:00:07.433Z,24.87
2018-04-08T12:01:07.441Z,25.05
2018-04-08T12:02:07.465Z,24.87
2018-04-08T12:03:07.458Z,24.61
2018-04-08T12:04:07.467Z,24.24
2018-04-08T12:05:07.473Z,24.41
2018-04-08T12:06:07.483Z,24.47
2018-04-08T12:07:07.492Z,24.52
2018-04-08T12:08:07.504Z,24.79
2018-04-08T12:09:07.519Z,24.71
2018-04-08T12:10:07.529Z,24.54
2018-04-08T12:11:07.530Z,24.32
2018-04-08T12:12:07.536Z,24.44
2018-04-08T12:13:07.599Z,24.54
2018-04-08T12:14:07.553Z,24.88
2018-04-08T12:15:07.605Z,25.07
2018-04-08T12:16:07.569Z,25.12
2018-04-08T12:17:07.585Z,25.17
2018-04-08T12:18:07.605Z,25.01
2018-04-08T12:19:07.596Z,25.05
2018-04-08T12:20:07.604Z,24.68
2018-04-08T12:21:07.612Z,24.49
2018-04-08T12:22:07.620Z,23.62
2018-04-08T12:23:07.628Z,23.65
2018-04-08T12:24:07.640Z,24.02
2018-04-08T12:25:07.645Z,24.47
2018-04-08T12:26:07.660Z,24.76
2018-04-08T12:27:07.664Z,24.95
2018-04-08T12:28:07.681Z,25.13
2018-04-08T12:29:07.680Z,25.25
2018-04-08T12:30:07.866Z,25.28
2018-04-08T12:31:07.697Z,25.17
2018-04-08T12:32:07.706Z,25.28
2018-04-08T12:33:07.715Z,25.42
2018-04-08T12:34:07.723Z,25.43
2018-04-08T12:35:07.743Z,25.30
2018-04-08T12:36:07.738Z,25.42
2018-04-08T12:37:07.748Z,25.24
2018-04-08T12:38:07.756Z,25.39
2018-04-08T12:39:07.769Z,25.46
2018-04-08T12:40:07.773Z,25.42
2018-04-08T12:41:07.785Z,25.42
2018-04-08T12:42:07.792Z,25.50
2018-04-08T12:43:07.843Z,25.05
2018-04-08T12:44:07.808Z,25.27
2018-04-08T12:45:07.818Z,25.30
2018-04-08T12:46:07.842Z,25.44
2018-04-08T12:47:07.832Z,25.24
2018-04-08T12:48:07.842Z,25.32
2018-04-08T12:49:07.851Z,25.64
2018-04-08T12:50:07.859Z,25.37
2018-04-08T12:51:07.867Z,25.34
2018-04-08T12:52:07.876Z,25.43
2018-04-08T12:53:07.886Z,25.61
2018-04-08T12:54:07.896Z,25.50
2018-04-08T12:55:07.901Z,25.56
2018-04-08T12:56:07.910Z,25.56
2018-04-08T12:57:07.929Z,25.64
2018-04-08T12:58:07.926Z,25.69
2018-04-08T12:59:07.938Z,25.64